sensor_id;sensor_type;location;lat;lon;timestamp;P1;durP1;ratioP1;P2;durP2;ratioP2
58302;SDS011;44109;52.398;7.024;2022-08-21T00:00:31;5.28;;;3.83;;
58302;SDS011;44109;52.398;7.024;2022-08-21T00:03:00;5.78;;;3.72;;
58302;SDS011;44109;52.398;7.024;2022-08-21T00:05:33;8.63;;;3.78;;
58302;SDS011;44109;52.398;7.024;2022-08-21T00:08:06;6.03;;;4.13;;
58302;SDS011;44109;52.398;7.024;2022-08-21T00:10:34;5.35;;;3.72;;
58302;SDS011;44109;52.398;7.024;2022-08-21T00:13:02;6.07;;;4.28;;
58302;SDS011;44109;52.398;7.024;2022-08-21T00:15:34;6.60;;;4.22;;
58302;SDS011;44109;52.398;7.024;2022-08-21T00:18:05;8.68;;;4.53;;
58302;SDS011;44109;52.398;7.024;2022-08-21T00:20:34;5.20;;;3.42;;
58302;SDS011;44109;52.398;7.024;2022-08-21T00:23:02;7.38;;;5.22;;
58302;SDS011;44109;52.398;7.024;2022-08-21T00:25:31;6.38;;;3.95;;
58302;SDS011;44109;52.398;7.024;2022-08-21T00:27:58;9.63;;;3.85;;
58302;SDS011;44109;52.398;7.024;2022-08-21T00:30:27;8.23;;;4.85;;
58302;SDS011;44109;52.398;7.024;2022-08-21T00:32:58;4.53;;;3.70;;
58302;SDS011;44109;52.398;7.024;2022-08-21T00:35:28;4.95;;;3.92;;
58302;SDS011;44109;52.398;7.024;2022-08-21T00:38:00;5.10;;;3.55;;
58302;SDS011;44109;52.398;7.024;2022-08-21T00:40:32;5.22;;;3.65;;
58302;SDS011;44109;52.398;7.024;2022-08-21T00:43:03;7.38;;;4.47;;
58302;SDS011;44109;52.398;7.024;2022-08-21T00:45:33;6.20;;;4.25;;
58302;SDS011;44109;52.398;7.024;2022-08-21T00:48:03;5.32;;;4.05;;
58302;SDS011;44109;52.398;7.024;2022-08-21T00:50:33;7.65;;;3.63;;
58302;SDS011;44109;52.398;7.024;2022-08-21T00:53:06;5.40;;;3.97;;
58302;SDS011;44109;52.398;7.024;2022-08-21T00:55:39;5.53;;;3.30;;
58302;SDS011;44109;52.398;7.024;2022-08-21T00:58:07;8.73;;;4.47;;
58302;SDS011;44109;52.398;7.024;2022-08-21T01:00:40;5.25;;;3.97;;
58302;SDS011;44109;52.398;7.024;2022-08-21T01:03:14;6.05;;;4.00;;
58302;SDS011;44109;52.398;7.024;2022-08-21T01:08:13;8.30;;;3.50;;
58302;SDS011;44109;52.398;7.024;2022-08-21T01:10:44;5.13;;;3.63;;
58302;SDS011;44109;52.398;7.024;2022-08-21T01:13:14;4.95;;;3.80;;
58302;SDS011;44109;52.398;7.024;2022-08-21T01:15:45;5.32;;;3.85;;
58302;SDS011;44109;52.398;7.024;2022-08-21T01:18:19;6.75;;;3.45;;
58302;SDS011;44109;52.398;7.024;2022-08-21T01:23:42;7.03;;;4.07;;
58302;SDS011;44109;52.398;7.024;2022-08-21T01:26:13;5.55;;;3.55;;
58302;SDS011;44109;52.398;7.024;2022-08-21T01:28:44;5.07;;;3.22;;
58302;SDS011;44109;52.398;7.024;2022-08-21T01:31:19;4.32;;;3.15;;
58302;SDS011;44109;52.398;7.024;2022-08-21T01:33:51;4.88;;;3.35;;
58302;SDS011;44109;52.398;7.024;2022-08-21T01:36:20;4.88;;;3.20;;
58302;SDS011;44109;52.398;7.024;2022-08-21T01:38:49;4.60;;;3.80;;
58302;SDS011;44109;52.398;7.024;2022-08-21T01:41:16;3.60;;;2.72;;
58302;SDS011;44109;52.398;7.024;2022-08-21T01:43:44;4.78;;;3.67;;
58302;SDS011;44109;52.398;7.024;2022-08-21T01:46:12;7.68;;;4.15;;
58302;SDS011;44109;52.398;7.024;2022-08-21T01:48:40;5.15;;;3.45;;
58302;SDS011;44109;52.398;7.024;2022-08-21T01:51:09;8.43;;;3.88;;
58302;SDS011;44109;52.398;7.024;2022-08-21T01:53:38;4.03;;;3.20;;
58302;SDS011;44109;52.398;7.024;2022-08-21T01:56:07;5.60;;;2.95;;
58302;SDS011;44109;52.398;7.024;2022-08-21T01:58:38;6.38;;;3.80;;
58302;SDS011;44109;52.398;7.024;2022-08-21T02:01:06;5.10;;;3.20;;
58302;SDS011;44109;52.398;7.024;2022-08-21T02:03:34;7.03;;;4.10;;
58302;SDS011;44109;52.398;7.024;2022-08-21T02:06:03;5.95;;;3.75;;
58302;SDS011;44109;52.398;7.024;2022-08-21T02:08:32;4.53;;;3.17;;
58302;SDS011;44109;52.398;7.024;2022-08-21T02:11:02;5.95;;;4.03;;
58302;SDS011;44109;52.398;7.024;2022-08-21T02:13:29;5.53;;;3.95;;
58302;SDS011;44109;52.398;7.024;2022-08-21T02:15:57;4.63;;;3.83;;
58302;SDS011;44109;52.398;7.024;2022-08-21T02:18:25;5.70;;;4.07;;
58302;SDS011;44109;52.398;7.024;2022-08-21T02:20:52;6.38;;;3.80;;
58302;SDS011;44109;52.398;7.024;2022-08-21T02:23:20;7.47;;;4.50;;
58302;SDS011;44109;52.398;7.024;2022-08-21T02:25:47;9.32;;;4.95;;
58302;SDS011;44109;52.398;7.024;2022-08-21T02:28:16;7.57;;;5.20;;
58302;SDS011;44109;52.398;7.024;2022-08-21T02:30:45;6.63;;;4.28;;
58302;SDS011;44109;52.398;7.024;2022-08-21T02:33:15;5.68;;;4.32;;
58302;SDS011;44109;52.398;7.024;2022-08-21T02:35:43;7.18;;;4.88;;
58302;SDS011;44109;52.398;7.024;2022-08-21T02:38:14;7.55;;;3.50;;
58302;SDS011;44109;52.398;7.024;2022-08-21T02:40:46;5.80;;;3.55;;
58302;SDS011;44109;52.398;7.024;2022-08-21T02:43:18;6.22;;;3.85;;
58302;SDS011;44109;52.398;7.024;2022-08-21T02:45:48;7.30;;;4.25;;
58302;SDS011;44109;52.398;7.024;2022-08-21T02:48:17;9.10;;;5.22;;
58302;SDS011;44109;52.398;7.024;2022-08-21T02:50:56;8.82;;;4.53;;
58302;SDS011;44109;52.398;7.024;2022-08-21T02:53:26;7.30;;;5.38;;
58302;SDS011;44109;52.398;7.024;2022-08-21T02:55:56;7.57;;;4.85;;
58302;SDS011;44109;52.398;7.024;2022-08-21T02:58:31;6.60;;;4.65;;
58302;SDS011;44109;52.398;7.024;2022-08-21T03:01:02;7.05;;;4.13;;
58302;SDS011;44109;52.398;7.024;2022-08-21T03:03:30;5.13;;;3.65;;
58302;SDS011;44109;52.398;7.024;2022-08-21T03:06:00;6.90;;;4.15;;
58302;SDS011;44109;52.398;7.024;2022-08-21T03:08:28;7.65;;;5.05;;
58302;SDS011;44109;52.398;7.024;2022-08-21T03:10:56;7.75;;;4.47;;
58302;SDS011;44109;52.398;7.024;2022-08-21T03:13:28;9.60;;;5.05;;
58302;SDS011;44109;52.398;7.024;2022-08-21T03:15:56;8.55;;;5.07;;
58302;SDS011;44109;52.398;7.024;2022-08-21T03:18:24;7.97;;;4.22;;
58302;SDS011;44109;52.398;7.024;2022-08-21T03:20:51;7.93;;;4.95;;
58302;SDS011;44109;52.398;7.024;2022-08-21T03:23:19;5.65;;;4.63;;
58302;SDS011;44109;52.398;7.024;2022-08-21T03:25:46;6.85;;;4.95;;
58302;SDS011;44109;52.398;7.024;2022-08-21T03:28:19;6.45;;;4.55;;
58302;SDS011;44109;52.398;7.024;2022-08-21T03:30:50;6.32;;;4.35;;
58302;SDS011;44109;52.398;7.024;2022-08-21T03:33:19;7.75;;;4.55;;
58302;SDS011;44109;52.398;7.024;2022-08-21T03:35:48;7.85;;;4.72;;
58302;SDS011;44109;52.398;7.024;2022-08-21T03:38:26;8.25;;;4.78;;
58302;SDS011;44109;52.398;7.024;2022-08-21T03:40:56;7.20;;;4.97;;
58302;SDS011;44109;52.398;7.024;2022-08-21T03:43:24;6.28;;;5.00;;
58302;SDS011;44109;52.398;7.024;2022-08-21T03:45:53;9.50;;;5.35;;
58302;SDS011;44109;52.398;7.024;2022-08-21T03:48:21;9.95;;;4.53;;
58302;SDS011;44109;52.398;7.024;2022-08-21T03:50:51;7.47;;;4.60;;
58302;SDS011;44109;52.398;7.024;2022-08-21T03:53:19;6.25;;;4.72;;
58302;SDS011;44109;52.398;7.024;2022-08-21T03:55:48;7.07;;;4.25;;
58302;SDS011;44109;52.398;7.024;2022-08-21T03:58:19;7.45;;;4.40;;
58302;SDS011;44109;52.398;7.024;2022-08-21T04:00:50;7.30;;;5.15;;
58302;SDS011;44109;52.398;7.024;2022-08-21T04:03:23;5.65;;;4.10;;
58302;SDS011;44109;52.398;7.024;2022-08-21T04:05:52;6.90;;;4.53;;
58302;SDS011;44109;52.398;7.024;2022-08-21T04:08:19;5.45;;;4.07;;
58302;SDS011;44109;52.398;7.024;2022-08-21T04:10:48;6.40;;;3.90;;
58302;SDS011;44109;52.398;7.024;2022-08-21T04:13:20;6.47;;;4.03;;
58302;SDS011;44109;52.398;7.024;2022-08-21T04:15:48;4.40;;;3.50;;
58302;SDS011;44109;52.398;7.024;2022-08-21T04:18:18;5.55;;;3.42;;
58302;SDS011;44109;52.398;7.024;2022-08-21T04:20:46;4.63;;;3.65;;
58302;SDS011;44109;52.398;7.024;2022-08-21T04:23:18;8.45;;;3.53;;
58302;SDS011;44109;52.398;7.024;2022-08-21T04:25:47;4.53;;;3.85;;
58302;SDS011;44109;52.398;7.024;2022-08-21T04:28:15;5.18;;;3.97;;
58302;SDS011;44109;52.398;7.024;2022-08-21T04:30:42;5.15;;;3.45;;
58302;SDS011;44109;52.398;7.024;2022-08-21T04:33:11;5.25;;;3.85;;
58302;SDS011;44109;52.398;7.024;2022-08-21T04:35:40;4.53;;;3.10;;
58302;SDS011;44109;52.398;7.024;2022-08-21T04:38:09;4.07;;;3.33;;
58302;SDS011;44109;52.398;7.024;2022-08-21T04:40:37;4.57;;;3.15;;
58302;SDS011;44109;52.398;7.024;2022-08-21T04:43:05;4.75;;;3.55;;
58302;SDS011;44109;52.398;7.024;2022-08-21T04:45:36;4.30;;;3.35;;
58302;SDS011;44109;52.398;7.024;2022-08-21T04:48:08;4.72;;;3.00;;
58302;SDS011;44109;52.398;7.024;2022-08-21T04:50:40;6.13;;;4.28;;
58302;SDS011;44109;52.398;7.024;2022-08-21T04:53:20;7.28;;;3.90;;
58302;SDS011;44109;52.398;7.024;2022-08-21T04:55:51;6.82;;;3.70;;
58302;SDS011;44109;52.398;7.024;2022-08-21T04:58:23;4.72;;;4.20;;
58302;SDS011;44109;52.398;7.024;2022-08-21T05:00:55;5.35;;;3.90;;
58302;SDS011;44109;52.398;7.024;2022-08-21T05:03:26;4.97;;;3.60;;
58302;SDS011;44109;52.398;7.024;2022-08-21T05:05:58;6.07;;;4.03;;
58302;SDS011;44109;52.398;7.024;2022-08-21T05:08:27;5.90;;;4.47;;
58302;SDS011;44109;52.398;7.024;2022-08-21T05:10:55;5.05;;;4.15;;
58302;SDS011;44109;52.398;7.024;2022-08-21T05:13:24;8.77;;;4.95;;
58302;SDS011;44109;52.398;7.024;2022-08-21T05:15:51;6.22;;;3.80;;
58302;SDS011;44109;52.398;7.024;2022-08-21T05:18:19;7.63;;;4.75;;
58302;SDS011;44109;52.398;7.024;2022-08-21T05:20:46;5.75;;;4.28;;
58302;SDS011;44109;52.398;7.024;2022-08-21T05:23:15;7.97;;;5.53;;
58302;SDS011;44109;52.398;7.024;2022-08-21T05:25:43;6.85;;;5.65;;
58302;SDS011;44109;52.398;7.024;2022-08-21T05:28:11;7.18;;;5.10;;
58302;SDS011;44109;52.398;7.024;2022-08-21T05:30:39;6.30;;;4.57;;
58302;SDS011;44109;52.398;7.024;2022-08-21T05:33:07;7.43;;;5.90;;
58302;SDS011;44109;52.398;7.024;2022-08-21T05:35:35;9.55;;;5.68;;
58302;SDS011;44109;52.398;7.024;2022-08-21T05:38:05;9.85;;;5.57;;
58302;SDS011;44109;52.398;7.024;2022-08-21T05:40:34;6.90;;;4.97;;
58302;SDS011;44109;52.398;7.024;2022-08-21T05:43:02;6.70;;;4.82;;
58302;SDS011;44109;52.398;7.024;2022-08-21T05:45:31;7.07;;;5.07;;
58302;SDS011;44109;52.398;7.024;2022-08-21T05:48:05;6.10;;;4.90;;
58302;SDS011;44109;52.398;7.024;2022-08-21T05:50:34;9.07;;;5.97;;
58302;SDS011;44109;52.398;7.024;2022-08-21T05:53:03;7.35;;;5.70;;
58302;SDS011;44109;52.398;7.024;2022-08-21T05:55:30;8.23;;;5.20;;
58302;SDS011;44109;52.398;7.024;2022-08-21T05:57:59;7.03;;;5.07;;
58302;SDS011;44109;52.398;7.024;2022-08-21T06:00:27;6.95;;;5.72;;
58302;SDS011;44109;52.398;7.024;2022-08-21T06:02:55;7.90;;;5.38;;
58302;SDS011;44109;52.398;7.024;2022-08-21T06:05:22;8.60;;;5.22;;
58302;SDS011;44109;52.398;7.024;2022-08-21T06:07:50;4.95;;;4.10;;
58302;SDS011;44109;52.398;7.024;2022-08-21T06:10:18;6.40;;;4.82;;
58302;SDS011;44109;52.398;7.024;2022-08-21T06:12:45;5.93;;;4.85;;
58302;SDS011;44109;52.398;7.024;2022-08-21T06:15:14;6.80;;;4.60;;
58302;SDS011;44109;52.398;7.024;2022-08-21T06:17:42;5.65;;;4.20;;
58302;SDS011;44109;52.398;7.024;2022-08-21T06:20:09;6.38;;;5.10;;
58302;SDS011;44109;52.398;7.024;2022-08-21T06:22:37;6.45;;;4.68;;
58302;SDS011;44109;52.398;7.024;2022-08-21T06:25:05;6.78;;;3.70;;
58302;SDS011;44109;52.398;7.024;2022-08-21T06:27:33;5.32;;;3.80;;
58302;SDS011;44109;52.398;7.024;2022-08-21T06:30:00;6.18;;;4.20;;
58302;SDS011;44109;52.398;7.024;2022-08-21T06:32:29;5.75;;;3.97;;
58302;SDS011;44109;52.398;7.024;2022-08-21T06:34:57;6.05;;;3.28;;
58302;SDS011;44109;52.398;7.024;2022-08-21T06:37:25;6.38;;;3.83;;
58302;SDS011;44109;52.398;7.024;2022-08-21T06:39:53;5.25;;;3.15;;
58302;SDS011;44109;52.398;7.024;2022-08-21T06:42:21;6.63;;;3.50;;
58302;SDS011;44109;52.398;7.024;2022-08-21T06:44:49;5.43;;;3.17;;
58302;SDS011;44109;52.398;7.024;2022-08-21T06:47:17;4.75;;;3.08;;
58302;SDS011;44109;52.398;7.024;2022-08-21T06:49:46;5.65;;;3.40;;
58302;SDS011;44109;52.398;7.024;2022-08-21T06:52:13;5.63;;;3.10;;
58302;SDS011;44109;52.398;7.024;2022-08-21T06:54:41;4.07;;;2.47;;
58302;SDS011;44109;52.398;7.024;2022-08-21T06:57:09;3.33;;;2.65;;
58302;SDS011;44109;52.398;7.024;2022-08-21T06:59:36;3.17;;;2.20;;
58302;SDS011;44109;52.398;7.024;2022-08-21T07:02:04;3.90;;;2.53;;
58302;SDS011;44109;52.398;7.024;2022-08-21T07:04:31;5.05;;;2.72;;
58302;SDS011;44109;52.398;7.024;2022-08-21T07:07:00;4.97;;;2.70;;
58302;SDS011;44109;52.398;7.024;2022-08-21T07:09:28;5.00;;;2.70;;
58302;SDS011;44109;52.398;7.024;2022-08-21T07:11:55;3.88;;;2.45;;
58302;SDS011;44109;52.398;7.024;2022-08-21T07:14:24;3.47;;;2.17;;
58302;SDS011;44109;52.398;7.024;2022-08-21T07:16:51;4.00;;;1.88;;
58302;SDS011;44109;52.398;7.024;2022-08-21T07:19:19;4.38;;;2.17;;
58302;SDS011;44109;52.398;7.024;2022-08-21T07:21:47;4.50;;;2.00;;
58302;SDS011;44109;52.398;7.024;2022-08-21T07:24:16;3.90;;;1.98;;
58302;SDS011;44109;52.398;7.024;2022-08-21T07:26:43;6.53;;;1.85;;
58302;SDS011;44109;52.398;7.024;2022-08-21T07:29:11;2.88;;;1.77;;
58302;SDS011;44109;52.398;7.024;2022-08-21T07:31:38;5.38;;;1.67;;
58302;SDS011;44109;52.398;7.024;2022-08-21T07:34:06;3.72;;;1.60;;
58302;SDS011;44109;52.398;7.024;2022-08-21T07:36:34;4.32;;;1.60;;
58302;SDS011;44109;52.398;7.024;2022-08-21T07:39:01;2.00;;;1.33;;
58302;SDS011;44109;52.398;7.024;2022-08-21T07:41:31;3.35;;;1.40;;
58302;SDS011;44109;52.398;7.024;2022-08-21T07:44:00;5.13;;;1.83;;
58302;SDS011;44109;52.398;7.024;2022-08-21T07:46:28;6.68;;;2.00;;
58302;SDS011;44109;52.398;7.024;2022-08-21T07:48:56;3.58;;;1.70;;
58302;SDS011;44109;52.398;7.024;2022-08-21T07:51:25;2.55;;;1.13;;
58302;SDS011;44109;52.398;7.024;2022-08-21T07:53:56;2.87;;;1.60;;
58302;SDS011;44109;52.398;7.024;2022-08-21T07:56:25;5.47;;;2.28;;
58302;SDS011;44109;52.398;7.024;2022-08-21T07:58:55;2.97;;;1.15;;
58302;SDS011;44109;52.398;7.024;2022-08-21T08:01:23;2.58;;;1.40;;
58302;SDS011;44109;52.398;7.024;2022-08-21T08:03:51;3.13;;;1.30;;
58302;SDS011;44109;52.398;7.024;2022-08-21T08:06:19;2.67;;;1.23;;
58302;SDS011;44109;52.398;7.024;2022-08-21T08:08:46;4.32;;;1.70;;
58302;SDS011;44109;52.398;7.024;2022-08-21T08:11:14;2.88;;;1.42;;
58302;SDS011;44109;52.398;7.024;2022-08-21T08:13:42;4.05;;;1.30;;
58302;SDS011;44109;52.398;7.024;2022-08-21T08:16:14;3.00;;;1.42;;
58302;SDS011;44109;52.398;7.024;2022-08-21T08:18:42;2.95;;;1.50;;
58302;SDS011;44109;52.398;7.024;2022-08-21T08:21:11;2.47;;;1.33;;
58302;SDS011;44109;52.398;7.024;2022-08-21T08:23:39;7.28;;;2.10;;
58302;SDS011;44109;52.398;7.024;2022-08-21T08:26:09;5.30;;;1.42;;
58302;SDS011;44109;52.398;7.024;2022-08-21T08:28:37;4.13;;;1.63;;
58302;SDS011;44109;52.398;7.024;2022-08-21T08:31:05;4.50;;;1.70;;
58302;SDS011;44109;52.398;7.024;2022-08-21T08:33:34;2.95;;;1.80;;
58302;SDS011;44109;52.398;7.024;2022-08-21T08:36:01;5.10;;;1.70;;
58302;SDS011;44109;52.398;7.024;2022-08-21T08:38:30;3.75;;;1.23;;
58302;SDS011;44109;52.398;7.024;2022-08-21T08:40:58;5.20;;;1.70;;
58302;SDS011;44109;52.398;7.024;2022-08-21T08:43:36;3.13;;;1.38;;
58302;SDS011;44109;52.398;7.024;2022-08-21T08:46:04;3.47;;;1.70;;
58302;SDS011;44109;52.398;7.024;2022-08-21T08:48:46;2.95;;;1.55;;
58302;SDS011;44109;52.398;7.024;2022-08-21T08:51:22;5.03;;;2.00;;
58302;SDS011;44109;52.398;7.024;2022-08-21T08:54:00;5.07;;;2.13;;
58302;SDS011;44109;52.398;7.024;2022-08-21T08:56:35;4.18;;;1.98;;
58302;SDS011;44109;52.398;7.024;2022-08-21T08:59:05;4.90;;;2.33;;
58302;SDS011;44109;52.398;7.024;2022-08-21T09:01:41;3.45;;;1.85;;
58302;SDS011;44109;52.398;7.024;2022-08-21T09:04:11;3.03;;;1.67;;
58302;SDS011;44109;52.398;7.024;2022-08-21T09:06:47;4.32;;;1.92;;
58302;SDS011;44109;52.398;7.024;2022-08-21T09:09:48;5.45;;;1.83;;
58302;SDS011;44109;52.398;7.024;2022-08-21T09:12:35;5.45;;;2.97;;
58302;SDS011;44109;52.398;7.024;2022-08-21T09:15:15;4.60;;;2.03;;
58302;SDS011;44109;52.398;7.024;2022-08-21T09:21:05;4.60;;;1.80;;
58302;SDS011;44109;52.398;7.024;2022-08-21T09:23:45;3.35;;;1.98;;
58302;SDS011;44109;52.398;7.024;2022-08-21T09:26:26;5.68;;;2.05;;
58302;SDS011;44109;52.398;7.024;2022-08-21T09:28:59;4.85;;;2.35;;
58302;SDS011;44109;52.398;7.024;2022-08-21T09:31:28;4.80;;;1.92;;
58302;SDS011;44109;52.398;7.024;2022-08-21T09:34:00;6.70;;;2.77;;
58302;SDS011;44109;52.398;7.024;2022-08-21T09:36:33;3.03;;;1.75;;
58302;SDS011;44109;52.398;7.024;2022-08-21T09:39:08;4.90;;;1.83;;
58302;SDS011;44109;52.398;7.024;2022-08-21T09:41:38;5.00;;;2.10;;
58302;SDS011;44109;52.398;7.024;2022-08-21T09:44:07;3.92;;;1.83;;
58302;SDS011;44109;52.398;7.024;2022-08-21T09:46:35;5.30;;;1.65;;
58302;SDS011;44109;52.398;7.024;2022-08-21T09:49:03;4.65;;;2.03;;
58302;SDS011;44109;52.398;7.024;2022-08-21T09:51:33;3.13;;;2.40;;
58302;SDS011;44109;52.398;7.024;2022-08-21T09:54:12;5.25;;;2.60;;
58302;SDS011;44109;52.398;7.024;2022-08-21T09:56:52;7.47;;;2.20;;
58302;SDS011;44109;52.398;7.024;2022-08-21T09:59:42;4.28;;;2.17;;
58302;SDS011;44109;52.398;7.024;2022-08-21T10:02:22;6.68;;;2.90;;
58302;SDS011;44109;52.398;7.024;2022-08-21T10:04:55;5.70;;;2.78;;
58302;SDS011;44109;52.398;7.024;2022-08-21T10:07:29;6.35;;;2.90;;
58302;SDS011;44109;52.398;7.024;2022-08-21T10:12:31;6.47;;;2.70;;
58302;SDS011;44109;52.398;7.024;2022-08-21T10:15:13;4.93;;;2.47;;
58302;SDS011;44109;52.398;7.024;2022-08-21T10:17:52;4.10;;;2.28;;
58302;SDS011;44109;52.398;7.024;2022-08-21T10:20:34;4.75;;;2.80;;
58302;SDS011;44109;52.398;7.024;2022-08-21T10:23:20;6.10;;;3.00;;
58302;SDS011;44109;52.398;7.024;2022-08-21T10:26:09;4.68;;;2.45;;
58302;SDS011;44109;52.398;7.024;2022-08-21T10:28:55;5.53;;;2.97;;
58302;SDS011;44109;52.398;7.024;2022-08-21T10:31:37;6.18;;;2.75;;
58302;SDS011;44109;52.398;7.024;2022-08-21T10:34:25;7.03;;;3.28;;
58302;SDS011;44109;52.398;7.024;2022-08-21T10:37:15;4.63;;;3.30;;
58302;SDS011;44109;52.398;7.024;2022-08-21T10:40:05;5.25;;;2.10;;
58302;SDS011;44109;52.398;7.024;2022-08-21T10:42:49;6.50;;;2.75;;
58302;SDS011;44109;52.398;7.024;2022-08-21T10:45:35;5.77;;;3.17;;
58302;SDS011;44109;52.398;7.024;2022-08-21T10:48:21;5.20;;;3.08;;
58302;SDS011;44109;52.398;7.024;2022-08-21T10:50:57;5.13;;;2.67;;
58302;SDS011;44109;52.398;7.024;2022-08-21T10:53:41;8.45;;;3.03;;
58302;SDS011;44109;52.398;7.024;2022-08-21T10:56:23;7.03;;;3.33;;
58302;SDS011;44109;52.398;7.024;2022-08-21T10:59:05;6.25;;;3.30;;
58302;SDS011;44109;52.398;7.024;2022-08-21T11:01:53;7.05;;;3.13;;
58302;SDS011;44109;52.398;7.024;2022-08-21T11:04:30;7.35;;;3.20;;
58302;SDS011;44109;52.398;7.024;2022-08-21T11:07:05;5.03;;;2.50;;
58302;SDS011;44109;52.398;7.024;2022-08-21T11:09:43;4.13;;;2.47;;
58302;SDS011;44109;52.398;7.024;2022-08-21T11:12:19;5.72;;;2.30;;
58302;SDS011;44109;52.398;7.024;2022-08-21T11:14:56;4.43;;;2.55;;
58302;SDS011;44109;52.398;7.024;2022-08-21T11:17:34;4.40;;;2.55;;
58302;SDS011;44109;52.398;7.024;2022-08-21T11:20:12;4.90;;;2.85;;
58302;SDS011;44109;52.398;7.024;2022-08-21T11:22:54;4.03;;;1.90;;
58302;SDS011;44109;52.398;7.024;2022-08-21T11:25:31;4.60;;;1.85;;
58302;SDS011;44109;52.398;7.024;2022-08-21T11:28:08;4.45;;;2.40;;
58302;SDS011;44109;52.398;7.024;2022-08-21T11:30:47;4.03;;;2.90;;
58302;SDS011;44109;52.398;7.024;2022-08-21T11:33:38;4.95;;;2.40;;
58302;SDS011;44109;52.398;7.024;2022-08-21T11:36:25;4.40;;;2.22;;
58302;SDS011;44109;52.398;7.024;2022-08-21T11:39:06;5.20;;;2.40;;
58302;SDS011;44109;52.398;7.024;2022-08-21T11:41:52;3.20;;;1.80;;
58302;SDS011;44109;52.398;7.024;2022-08-21T11:44:33;4.50;;;2.30;;
58302;SDS011;44109;52.398;7.024;2022-08-21T11:47:19;4.20;;;1.92;;
58302;SDS011;44109;52.398;7.024;2022-08-21T11:50:03;4.75;;;1.73;;
58302;SDS011;44109;52.398;7.024;2022-08-21T11:52:42;4.38;;;1.50;;
58302;SDS011;44109;52.398;7.024;2022-08-21T11:55:18;4.03;;;2.08;;
58302;SDS011;44109;52.398;7.024;2022-08-21T11:57:55;4.22;;;2.08;;
58302;SDS011;44109;52.398;7.024;2022-08-21T12:00:31;5.88;;;2.05;;
58302;SDS011;44109;52.398;7.024;2022-08-21T12:03:07;4.47;;;1.65;;
58302;SDS011;44109;52.398;7.024;2022-08-21T12:05:44;5.22;;;1.63;;
58302;SDS011;44109;52.398;7.024;2022-08-21T12:08:26;6.78;;;2.33;;
58302;SDS011;44109;52.398;7.024;2022-08-21T12:11:00;4.53;;;1.70;;
58302;SDS011;44109;52.398;7.024;2022-08-21T12:13:34;4.47;;;1.80;;
58302;SDS011;44109;52.398;7.024;2022-08-21T12:16:07;3.53;;;2.00;;
58302;SDS011;44109;52.398;7.024;2022-08-21T12:18:39;4.10;;;1.45;;
58302;SDS011;44109;52.398;7.024;2022-08-21T12:21:19;4.30;;;1.38;;
58302;SDS011;44109;52.398;7.024;2022-08-21T12:23:59;5.10;;;1.90;;
58302;SDS011;44109;52.398;7.024;2022-08-21T12:26:33;2.72;;;1.60;;
58302;SDS011;44109;52.398;7.024;2022-08-21T12:29:15;4.17;;;1.70;;
58302;SDS011;44109;52.398;7.024;2022-08-21T12:31:53;2.70;;;1.38;;
58302;SDS011;44109;52.398;7.024;2022-08-21T12:34:33;2.42;;;1.33;;
58302;SDS011;44109;52.398;7.024;2022-08-21T12:37:11;3.60;;;1.33;;
58302;SDS011;44109;52.398;7.024;2022-08-21T12:39:48;6.50;;;1.48;;
58302;SDS011;44109;52.398;7.024;2022-08-21T12:42:20;2.70;;;1.67;;
58302;SDS011;44109;52.398;7.024;2022-08-21T12:44:59;4.88;;;1.88;;
58302;SDS011;44109;52.398;7.024;2022-08-21T12:47:34;3.60;;;1.35;;
58302;SDS011;44109;52.398;7.024;2022-08-21T12:50:13;5.78;;;1.85;;
58302;SDS011;44109;52.398;7.024;2022-08-21T12:52:51;2.13;;;1.15;;
58302;SDS011;44109;52.398;7.024;2022-08-21T12:55:28;5.38;;;1.75;;
58302;SDS011;44109;52.398;7.024;2022-08-21T12:57:59;3.90;;;1.60;;
58302;SDS011;44109;52.398;7.024;2022-08-21T13:00:28;2.88;;;1.27;;
58302;SDS011;44109;52.398;7.024;2022-08-21T13:02:58;2.38;;;0.82;;
58302;SDS011;44109;52.398;7.024;2022-08-21T13:05:28;7.38;;;1.40;;
58302;SDS011;44109;52.398;7.024;2022-08-21T13:08:02;2.92;;;1.13;;
58302;SDS011;44109;52.398;7.024;2022-08-21T13:10:33;3.08;;;1.10;;
58302;SDS011;44109;52.398;7.024;2022-08-21T13:13:04;2.67;;;1.13;;
58302;SDS011;44109;52.398;7.024;2022-08-21T13:15:39;4.70;;;1.52;;
58302;SDS011;44109;52.398;7.024;2022-08-21T13:18:19;4.75;;;1.60;;
58302;SDS011;44109;52.398;7.024;2022-08-21T13:20:49;4.82;;;1.85;;
58302;SDS011;44109;52.398;7.024;2022-08-21T13:23:19;3.53;;;1.50;;
58302;SDS011;44109;52.398;7.024;2022-08-21T13:25:51;4.13;;;1.50;;
58302;SDS011;44109;52.398;7.024;2022-08-21T13:28:20;2.67;;;0.90;;
58302;SDS011;44109;52.398;7.024;2022-08-21T13:30:49;3.05;;;1.30;;
58302;SDS011;44109;52.398;7.024;2022-08-21T13:33:22;5.78;;;1.73;;
58302;SDS011;44109;52.398;7.024;2022-08-21T13:35:57;3.05;;;1.13;;
58302;SDS011;44109;52.398;7.024;2022-08-21T13:38:35;4.45;;;1.20;;
58302;SDS011;44109;52.398;7.024;2022-08-21T13:41:08;3.08;;;1.40;;
58302;SDS011;44109;52.398;7.024;2022-08-21T13:43:48;2.85;;;1.40;;
58302;SDS011;44109;52.398;7.024;2022-08-21T13:46:26;1.88;;;0.88;;
58302;SDS011;44109;52.398;7.024;2022-08-21T13:48:59;3.83;;;1.45;;
58302;SDS011;44109;52.398;7.024;2022-08-21T13:51:30;5.30;;;1.30;;
58302;SDS011;44109;52.398;7.024;2022-08-21T13:54:00;4.90;;;1.70;;
58302;SDS011;44109;52.398;7.024;2022-08-21T13:56:30;3.70;;;1.10;;
58302;SDS011;44109;52.398;7.024;2022-08-21T13:59:00;2.35;;;1.10;;
58302;SDS011;44109;52.398;7.024;2022-08-21T14:01:30;3.10;;;1.17;;
58302;SDS011;44109;52.398;7.024;2022-08-21T14:04:04;3.53;;;1.30;;
58302;SDS011;44109;52.398;7.024;2022-08-21T14:06:43;4.57;;;1.73;;
58302;SDS011;44109;52.398;7.024;2022-08-21T14:09:12;4.72;;;1.40;;
58302;SDS011;44109;52.398;7.024;2022-08-21T14:11:52;3.35;;;1.15;;
58302;SDS011;44109;52.398;7.024;2022-08-21T14:14:22;5.75;;;1.50;;
58302;SDS011;44109;52.398;7.024;2022-08-21T14:16:55;3.45;;;1.48;;
58302;SDS011;44109;52.398;7.024;2022-08-21T14:19:27;5.38;;;1.48;;
58302;SDS011;44109;52.398;7.024;2022-08-21T14:24:59;2.80;;;1.08;;
58302;SDS011;44109;52.398;7.024;2022-08-21T14:27:30;6.53;;;1.67;;
58302;SDS011;44109;52.398;7.024;2022-08-21T14:29:59;4.45;;;1.50;;
58302;SDS011;44109;52.398;7.024;2022-08-21T14:32:36;6.25;;;1.83;;
58302;SDS011;44109;52.398;7.024;2022-08-21T14:35:08;3.90;;;1.15;;
58302;SDS011;44109;52.398;7.024;2022-08-21T14:37:36;4.43;;;1.52;;
58302;SDS011;44109;52.398;7.024;2022-08-21T14:40:05;6.70;;;1.80;;
58302;SDS011;44109;52.398;7.024;2022-08-21T14:42:33;3.30;;;1.00;;
58302;SDS011;44109;52.398;7.024;2022-08-21T14:45:05;3.63;;;1.00;;
58302;SDS011;44109;52.398;7.024;2022-08-21T14:47:42;3.17;;;1.30;;
58302;SDS011;44109;52.398;7.024;2022-08-21T14:50:12;4.47;;;1.55;;
58302;SDS011;44109;52.398;7.024;2022-08-21T14:52:40;4.65;;;1.38;;
58302;SDS011;44109;52.398;7.024;2022-08-21T14:55:08;2.00;;;1.10;;
58302;SDS011;44109;52.398;7.024;2022-08-21T14:57:39;3.75;;;1.20;;
58302;SDS011;44109;52.398;7.024;2022-08-21T15:00:09;3.47;;;1.30;;
58302;SDS011;44109;52.398;7.024;2022-08-21T15:02:39;2.78;;;1.02;;
58302;SDS011;44109;52.398;7.024;2022-08-21T15:05:07;4.25;;;1.10;;
58302;SDS011;44109;52.398;7.024;2022-08-21T15:07:36;4.18;;;1.40;;
58302;SDS011;44109;52.398;7.024;2022-08-21T15:10:04;4.78;;;1.55;;
58302;SDS011;44109;52.398;7.024;2022-08-21T15:12:35;3.90;;;1.30;;
58302;SDS011;44109;52.398;7.024;2022-08-21T15:15:04;2.42;;;1.20;;
58302;SDS011;44109;52.398;7.024;2022-08-21T15:17:35;2.53;;;1.40;;
58302;SDS011;44109;52.398;7.024;2022-08-21T15:20:04;3.72;;;1.98;;
58302;SDS011;44109;52.398;7.024;2022-08-21T15:22:33;3.90;;;1.70;;
58302;SDS011;44109;52.398;7.024;2022-08-21T15:25:02;3.28;;;1.02;;
58302;SDS011;44109;52.398;7.024;2022-08-21T15:27:30;3.47;;;1.60;;
58302;SDS011;44109;52.398;7.024;2022-08-21T15:29:58;3.92;;;1.52;;